createdAt,value
2023-02-28T00:00:23.481Z,7
2023-02-28T00:01:26.870Z,7.599
2023-02-28T00:02:21.615Z,5.800
2023-02-28T00:03:21.575Z,5.699
2023-02-28T00:04:21.767Z,5.900
2023-02-28T00:05:21.999Z,5.800
2023-02-28T00:06:21.776Z,5.5
2023-02-28T00:07:21.888Z,7
2023-02-28T00:08:22.100Z,5.599
2023-02-28T00:09:21.680Z,6
2023-02-28T00:10:21.994Z,6.099
2023-02-28T00:11:22.381Z,5.400
2023-02-28T00:12:21.571Z,7.800
2023-02-28T00:13:36.230Z,5.5
2023-02-28T00:14:21.252Z,6.5
2023-02-28T00:15:36.082Z,6
2023-02-28T00:16:21.716Z,6.699
2023-02-28T00:17:21.528Z,6.099
2023-02-28T00:19:21.478Z,6.5
2023-02-28T00:20:21.853Z,6.400
2023-02-28T00:21:21.908Z,6.800
2023-02-28T00:22:21.563Z,5.099
2023-02-28T00:23:21.762Z,7.300
2023-02-28T00:24:21.476Z,5.900
2023-02-28T00:25:21.746Z,5.199
2023-02-28T00:26:22.066Z,6.599
2023-02-28T00:27:22.424Z,5.400
2023-02-28T00:28:22.044Z,6
2023-02-28T00:29:22.407Z,6.699
2023-02-28T00:30:21.993Z,5.800
2023-02-28T00:31:21.972Z,6.300
2023-02-28T00:32:21.673Z,6
2023-02-28T00:33:21.508Z,6.099
2023-02-28T00:34:21.085Z,6
2023-02-28T00:35:22.293Z,6.800
2023-02-28T00:36:21.484Z,5.199
2023-02-28T00:37:21.509Z,7.099
2023-02-28T00:38:21.592Z,5.800
2023-02-28T00:39:21.272Z,6.800
2023-02-28T00:40:21.633Z,5.699
2023-02-28T00:41:21.382Z,6.199
2023-02-28T00:43:21.329Z,5.300
2023-02-28T00:44:21.353Z,7
2023-02-28T00:45:22.190Z,5.800
2023-02-28T00:46:21.259Z,5.699
2023-02-28T00:47:21.345Z,5.900
2023-02-28T00:48:21.487Z,5.5
2023-02-28T00:50:22.997Z,6.099
2023-02-28T00:51:21.125Z,6.5
2023-02-28T00:52:21.767Z,5.5
2023-02-28T00:53:20.793Z,5.300
2023-02-28T00:54:21.705Z,7.599
2023-02-28T00:55:21.574Z,5.5
2023-02-28T00:56:21.069Z,6.699
2023-02-28T00:57:21.640Z,6.599
2023-02-28T00:58:20.958Z,6.900
2023-02-28T00:59:21.474Z,6.599
2023-02-28T01:00:22.833Z,6.900
2023-02-28T01:01:24.319Z,5.099
2023-02-28T01:02:21.000Z,6.099
2023-02-28T01:03:22.295Z,6.400
2023-02-28T01:04:21.308Z,7.300
2023-02-28T01:05:22.019Z,6.099
2023-02-28T01:06:22.090Z,7.300
2023-02-28T01:07:21.666Z,5.699
2023-02-28T01:08:21.254Z,5.300
2023-02-28T01:09:21.688Z,5.800
2023-02-28T01:10:21.809Z,6.599
2023-02-28T01:11:21.744Z,5.400
2023-02-28T01:12:22.058Z,5.300
2023-02-28T01:13:21.547Z,6.400
2023-02-28T01:14:21.129Z,5.900
2023-02-28T01:15:22.534Z,6
2023-02-28T01:16:21.091Z,4.300
2023-02-28T01:17:21.584Z,7.199
2023-02-28T01:18:21.658Z,7.400
2023-02-28T01:19:21.991Z,6.099
2023-02-28T01:20:21.415Z,5.900
2023-02-28T01:21:21.861Z,7
2023-02-28T01:22:20.975Z,5.199
2023-02-28T01:23:21.517Z,6.099
2023-02-28T01:24:21.876Z,6
2023-02-28T01:25:22.257Z,6.900
2023-02-28T01:26:21.592Z,6.300
2023-02-28T01:27:22.023Z,5.400
2023-02-28T01:28:20.764Z,5.599
2023-02-28T01:29:21.316Z,6.099
2023-02-28T01:30:22.056Z,6.300
2023-02-28T01:31:21.672Z,5.699
2023-02-28T01:32:21.324Z,5.900
2023-02-28T01:33:21.359Z,5.400
2023-02-28T01:34:21.362Z,5.099
2023-02-28T01:35:21.480Z,6.599
2023-02-28T01:36:21.030Z,5.199
2023-02-28T01:37:20.773Z,5.099
2023-02-28T01:38:23.190Z,5.5
2023-02-28T01:39:21.348Z,5.300
2023-02-28T01:40:22.187Z,4.300
2023-02-28T01:41:21.452Z,6.300
2023-02-28T01:42:21.491Z,5.099
2023-02-28T01:43:21.965Z,5.599
2023-02-28T01:44:20.908Z,5.5
2023-02-28T01:45:22.422Z,6.300
2023-02-28T01:46:21.587Z,5.5
2023-02-28T01:47:22.080Z,5.099
2023-02-28T01:48:21.905Z,6.400
2023-02-28T01:49:21.379Z,5.800
2023-02-28T01:50:20.890Z,5.199
2023-02-28T01:51:22.014Z,6.300
2023-02-28T01:52:21.771Z,5.900
2023-02-28T01:53:21.738Z,5.400
2023-02-28T01:54:21.544Z,5.900
2023-02-28T01:55:21.384Z,5.800
2023-02-28T01:56:21.625Z,5.900
2023-02-28T01:58:21.790Z,6.300
2023-02-28T02:00:22.644Z,5.900
2023-02-28T02:01:22.593Z,5.5
2023-02-28T02:02:22.382Z,6.599
2023-02-28T02:03:21.946Z,5.900
2023-02-28T02:04:21.605Z,6.099
2023-02-28T02:05:22.488Z,5.099
2023-02-28T02:06:21.553Z,5.400
2023-02-28T02:07:21.898Z,5.199
2023-02-28T02:08:21.816Z,5.5
2023-02-28T02:09:22.350Z,5.699
2023-02-28T02:10:21.889Z,5.099
2023-02-28T02:11:21.441Z,5.800
2023-02-28T02:12:21.801Z,6.099
2023-02-28T02:13:21.659Z,5.199
2023-02-28T02:14:21.526Z,5.599
2023-02-28T02:15:22.805Z,5.699
2023-02-28T02:16:21.668Z,5.400
2023-02-28T02:17:21.649Z,5.900
2023-02-28T02:19:21.389Z,4.5
2023-02-28T02:20:21.424Z,5.300
2023-02-28T02:21:21.377Z,6
2023-02-28T02:22:22.013Z,4.400
2023-02-28T02:23:21.363Z,6.199
2023-02-28T02:24:21.663Z,5.400
2023-02-28T02:25:21.662Z,5.599
2023-02-28T02:27:21.081Z,5
2023-02-28T02:28:21.535Z,5.300
2023-02-28T02:29:21.082Z,5.699
2023-02-28T02:30:22.147Z,6.199
2023-02-28T02:31:21.626Z,5.599
2023-02-28T02:32:22.157Z,5.699
2023-02-28T02:33:21.351Z,5.599
2023-02-28T02:34:21.233Z,6.5
2023-02-28T02:35:20.957Z,5.699
2023-02-28T02:36:22.043Z,5.800
2023-02-28T02:37:21.678Z,6.599
2023-02-28T02:38:21.640Z,6.300
2023-02-28T02:39:21.399Z,5.199
2023-02-28T02:40:21.449Z,6.400
2023-02-28T02:41:22.007Z,5.800
2023-02-28T02:42:20.840Z,5.699
2023-02-28T02:43:21.276Z,6.300
2023-02-28T02:44:20.549Z,7.199
2023-02-28T02:45:21.892Z,6.199
2023-02-28T02:46:22.018Z,5.599
2023-02-28T02:47:21.379Z,5.800
2023-02-28T02:48:20.838Z,5.5
2023-02-28T02:49:21.216Z,5.300
2023-02-28T02:50:21.643Z,5.5
2023-02-28T02:51:21.068Z,5
2023-02-28T02:52:22.216Z,5.400
2023-02-28T02:53:21.542Z,5.5
2023-02-28T02:54:21.772Z,5.300
2023-02-28T02:55:21.182Z,5.699
2023-02-28T02:56:21.127Z,5.800
2023-02-28T02:57:21.198Z,4.699
2023-02-28T02:58:20.637Z,6.300
2023-02-28T02:59:21.461Z,5.800
2023-02-28T03:00:41.907Z,5.400
2023-02-28T03:01:21.702Z,5
2023-02-28T03:02:22.348Z,5.199
2023-02-28T03:03:21.741Z,5.400
2023-02-28T03:04:20.995Z,5.300
2023-02-28T03:05:21.912Z,5.699
2023-02-28T03:06:21.301Z,5.800
2023-02-28T03:07:21.165Z,5.199
2023-02-28T03:08:21.399Z,7.699
2023-02-28T03:10:21.923Z,9.399
2023-02-28T03:11:21.546Z,9.100
2023-02-28T03:12:21.383Z,12.19
2023-02-28T03:13:21.905Z,9.899
2023-02-28T03:14:22.148Z,10.10
2023-02-28T03:15:21.623Z,9.699
2023-02-28T03:16:21.480Z,10.30
2023-02-28T03:17:21.527Z,9
2023-02-28T03:18:21.639Z,8.600
2023-02-28T03:19:21.576Z,10.30
2023-02-28T03:20:22.039Z,9.699
2023-02-28T03:21:21.936Z,11.5
2023-02-28T03:22:22.277Z,10.39
2023-02-28T03:23:21.834Z,13.39
2023-02-28T03:25:21.851Z,12
2023-02-28T03:26:21.489Z,12.80
2023-02-28T03:27:21.857Z,12
2023-02-28T03:28:21.390Z,11.39
2023-02-28T03:29:22.043Z,9.399
2023-02-28T03:30:21.710Z,10.10
2023-02-28T03:31:21.724Z,9.600
2023-02-28T03:32:21.719Z,8.100
2023-02-28T03:33:21.365Z,8.199
2023-02-28T03:35:21.532Z,7.300
2023-02-28T03:36:21.874Z,6.800
2023-02-28T03:37:21.970Z,7
2023-02-28T03:38:21.378Z,6.199
2023-02-28T03:39:22.023Z,6.400
2023-02-28T03:40:21.755Z,5.5
2023-02-28T03:42:21.952Z,6
2023-02-28T03:43:22.166Z,5.599
2023-02-28T03:44:22.018Z,6.400
2023-02-28T03:45:21.940Z,5.400
2023-02-28T03:46:22.093Z,6.199
2023-02-28T03:47:21.209Z,5.099
2023-02-28T03:48:21.268Z,5.199
2023-02-28T03:49:21.614Z,6.699
2023-02-28T03:50:22.386Z,5.900
2023-02-28T03:51:22.536Z,6.300
2023-02-28T03:52:22.148Z,5.800
2023-02-28T03:53:22.349Z,5.199
2023-02-28T03:54:21.820Z,6.099
2023-02-28T03:55:22.117Z,5.900
2023-02-28T03:57:21.470Z,5.300
2023-02-28T03:58:21.892Z,5
2023-02-28T03:59:21.727Z,5.099
2023-02-28T04:00:22.600Z,5.5
2023-02-28T04:01:23.057Z,5.800
2023-02-28T04:02:22.411Z,5.300
2023-02-28T04:03:22.475Z,5.400
2023-02-28T04:04:22.450Z,6.199
2023-02-28T04:05:21.617Z,5.400
2023-02-28T04:06:22.318Z,6.300
2023-02-28T04:07:22.349Z,5.5
2023-02-28T04:08:22.288Z,6.800
2023-02-28T04:09:22.614Z,5.900
2023-02-28T04:10:22.845Z,5.599
2023-02-28T04:11:21.296Z,5
2023-02-28T04:12:22.500Z,5.199
2023-02-28T04:13:21.796Z,5.800
2023-02-28T04:14:22.164Z,6.099
2023-02-28T04:15:22.523Z,5.900
2023-02-28T04:16:34.536Z,5.5
2023-02-28T04:17:21.616Z,5.699
2023-02-28T04:18:22.057Z,5.800
2023-02-28T04:19:21.450Z,6.400
2023-02-28T04:20:22.795Z,5.900
2023-02-28T04:21:22.033Z,5.099
2023-02-28T04:22:22.136Z,5.599
2023-02-28T04:23:22.134Z,5.900
2023-02-28T04:24:22.393Z,4.900
2023-02-28T04:25:22.345Z,5.300
2023-02-28T04:26:22.166Z,5.599
2023-02-28T04:27:21.583Z,5.900
2023-02-28T04:28:21.923Z,6.400
2023-02-28T04:29:22.436Z,5.699
2023-02-28T04:30:22.669Z,6.300
2023-02-28T04:31:22.251Z,5.300
2023-02-28T04:33:21.958Z,5.400
2023-02-28T04:34:22.212Z,6.099
2023-02-28T04:35:21.812Z,5.599
2023-02-28T04:36:21.963Z,5.400
2023-02-28T04:37:22.006Z,5.099
2023-02-28T04:38:21.984Z,5.800
2023-02-28T04:39:21.881Z,5.400
2023-02-28T04:40:23.018Z,5.800
2023-02-28T04:41:21.698Z,6.099
2023-02-28T04:42:22.467Z,5
2023-02-28T04:43:21.940Z,6.699
2023-02-28T04:44:21.723Z,5.900
2023-02-28T04:45:22.757Z,5.599
2023-02-28T04:46:22.024Z,5.5
2023-02-28T04:47:22.380Z,6.900
2023-02-28T04:48:22.450Z,5.599
2023-02-28T04:49:22.246Z,5
2023-02-28T04:50:21.826Z,5.300
2023-02-28T04:51:21.884Z,5.900
2023-02-28T04:52:22.320Z,5.099
2023-02-28T04:53:21.408Z,5.199
2023-02-28T04:54:21.788Z,4.900
2023-02-28T04:55:21.708Z,5.199
2023-02-28T04:56:22.215Z,5.099
2023-02-28T04:57:22.155Z,5.699
2023-02-28T04:58:22.239Z,6.099
2023-02-28T04:59:22.123Z,6.199
2023-02-28T05:00:23.002Z,5.400
2023-02-28T05:01:22.725Z,5.5
2023-02-28T05:02:22.464Z,5.699
2023-02-28T05:03:21.997Z,6.599
2023-02-28T05:04:21.727Z,6
2023-02-28T05:05:22.176Z,5.5
2023-02-28T05:07:22.819Z,5.800
2023-02-28T05:08:22.084Z,5.5
2023-02-28T05:09:22.155Z,4.599
2023-02-28T05:10:22.122Z,5.400
2023-02-28T05:11:22.562Z,5.099
2023-02-28T05:12:22.184Z,5
2023-02-28T05:13:22.183Z,5.599
2023-02-28T05:14:22.032Z,5.699
2023-02-28T05:15:22.585Z,6.199
2023-02-28T05:16:22.327Z,5
2023-02-28T05:17:23.104Z,6.599
2023-02-28T05:18:22.005Z,5.800
2023-02-28T05:19:22.558Z,4.900
2023-02-28T05:20:22.239Z,5.900
2023-02-28T05:21:22.667Z,5.400
2023-02-28T05:22:22.135Z,5.5
2023-02-28T05:23:22.175Z,6.099
2023-02-28T05:24:22.064Z,5.099
2023-02-28T05:25:22.443Z,5.900
2023-02-28T05:26:22.132Z,6.599
2023-02-28T05:27:22.138Z,6
2023-02-28T05:28:22.182Z,5.699
2023-02-28T05:29:22.348Z,6.099
2023-02-28T05:30:23.246Z,5.800
2023-02-28T05:31:22.378Z,5.900
2023-02-28T05:32:23.143Z,5.699
2023-02-28T05:33:21.970Z,6.099
2023-02-28T05:34:21.983Z,5.199
2023-02-28T05:35:22.278Z,6.099
2023-02-28T05:36:22.550Z,5.900
2023-02-28T05:37:22.846Z,5.5
2023-02-28T05:38:22.129Z,5.699
2023-02-28T05:39:22.579Z,5.5
2023-02-28T05:40:21.618Z,5.400
2023-02-28T05:41:22.162Z,5.800
2023-02-28T05:42:21.913Z,6
2023-02-28T05:43:21.406Z,6.099
2023-02-28T05:44:22.237Z,5.900
2023-02-28T05:45:22.884Z,6.199
2023-02-28T05:46:21.923Z,5.400
2023-02-28T05:47:21.901Z,5.199
2023-02-28T05:48:22.367Z,5.099
2023-02-28T05:49:22.031Z,6
2023-02-28T05:50:22.155Z,4.699
2023-02-28T05:51:22.268Z,4.800
2023-02-28T05:52:21.899Z,5.199
2023-02-28T05:53:22.259Z,5.099
2023-02-28T05:54:22.181Z,5.599
2023-02-28T05:55:21.615Z,5.199
2023-02-28T05:56:22.190Z,4.5
2023-02-28T05:57:24.724Z,5.400
2023-02-28T05:58:22.001Z,5.800
2023-02-28T05:59:22.332Z,6
2023-02-28T06:01:22.652Z,5.5
2023-02-28T06:02:21.535Z,4.599
2023-02-28T06:03:21.620Z,6.300
2023-02-28T06:04:31.621Z,6.099
2023-02-28T06:05:23.195Z,5.5
2023-02-28T06:06:22.888Z,5
2023-02-28T06:07:22.205Z,5.400
2023-02-28T06:08:22.218Z,4.599
2023-02-28T06:09:22.224Z,5.800
2023-02-28T06:10:21.897Z,4.599
2023-02-28T06:11:22.425Z,5.099
2023-02-28T06:12:22.517Z,5.900
2023-02-28T06:13:23.490Z,5.199
2023-02-28T06:14:21.889Z,5.699
2023-02-28T06:15:23.074Z,5.900
2023-02-28T06:16:22.069Z,6.599
2023-02-28T06:17:21.957Z,5.5
2023-02-28T06:18:21.823Z,6
2023-02-28T06:19:22.650Z,5.699
2023-02-28T06:20:22.188Z,5.599
2023-02-28T06:21:22.856Z,5.800
2023-02-28T06:22:21.574Z,5.099
2023-02-28T06:23:22.132Z,5.199
2023-02-28T06:24:21.735Z,6.599
2023-02-28T06:25:22.498Z,6.800
2023-02-28T06:26:22.892Z,6
2023-02-28T06:27:22.248Z,5.300
2023-02-28T06:28:22.581Z,6.099
2023-02-28T06:29:22.775Z,6
2023-02-28T06:30:22.345Z,6.300
2023-02-28T06:31:22.476Z,6
2023-02-28T06:32:22.155Z,5.599
2023-02-28T06:34:22.481Z,4.900
2023-02-28T06:35:36.821Z,5.699
2023-02-28T06:36:21.966Z,6.699
2023-02-28T06:37:22.000Z,7.099
2023-02-28T06:38:22.077Z,5.599
2023-02-28T06:39:22.689Z,5.800
2023-02-28T06:40:23.232Z,5.099
2023-02-28T06:41:22.679Z,5.800
2023-02-28T06:42:22.667Z,5.400
2023-02-28T06:43:22.677Z,8.100
2023-02-28T06:44:22.015Z,5.199
2023-02-28T06:45:22.355Z,5.699
2023-02-28T06:46:22.924Z,6.300
2023-02-28T06:47:22.706Z,6
2023-02-28T06:49:22.176Z,5.400
2023-02-28T06:50:23.050Z,5.300
2023-02-28T06:51:22.444Z,5.699
2023-02-28T06:52:22.744Z,5.099
2023-02-28T06:53:22.218Z,6
2023-02-28T06:54:22.802Z,5.300
2023-02-28T06:55:22.629Z,5.599
2023-02-28T06:56:22.154Z,5
2023-02-28T06:57:22.664Z,6.300
2023-02-28T06:58:22.728Z,6.5
2023-02-28T06:59:23.898Z,4.900
2023-02-28T07:00:25.326Z,5.400
2023-02-28T07:01:23.303Z,6.199
2023-02-28T07:02:23.425Z,5.800
2023-02-28T07:03:23.074Z,6.400
2023-02-28T07:04:23.101Z,5.699
2023-02-28T07:05:22.168Z,6.099
2023-02-28T07:06:22.727Z,6.900
2023-02-28T07:07:22.345Z,5.599
2023-02-28T07:08:21.975Z,6.099
2023-02-28T07:10:22.783Z,6.5
2023-02-28T07:11:22.354Z,6.300
2023-02-28T07:12:22.871Z,6.199
2023-02-28T07:13:23.098Z,5.599
2023-02-28T07:14:22.422Z,6.5
2023-02-28T07:15:23.098Z,7.400
2023-02-28T07:16:22.745Z,6.699
2023-02-28T07:17:23.008Z,5.5
2023-02-28T07:18:28.287Z,5.800
2023-02-28T07:19:23.214Z,6.099
2023-02-28T07:20:28.338Z,6.699
2023-02-28T07:21:23.231Z,5.300
2023-02-28T07:22:23.954Z,7.5
2023-02-28T07:23:23.091Z,5.800
2023-02-28T07:24:22.693Z,6.699
2023-02-28T07:25:23.142Z,6.800
2023-02-28T07:26:23.325Z,6.699
2023-02-28T07:27:22.601Z,6.900
2023-02-28T07:28:22.648Z,6.699
2023-02-28T07:29:23.184Z,6.099
2023-02-28T07:30:22.758Z,7.400
2023-02-28T07:31:23.648Z,7.699
2023-02-28T07:32:22.845Z,6.599
2023-02-28T07:33:22.920Z,7.599
2023-02-28T07:34:22.491Z,6.800
2023-02-28T07:35:22.777Z,6.900
2023-02-28T07:36:23.581Z,6.099
2023-02-28T07:37:23.114Z,7.5
2023-02-28T07:38:36.326Z,7.800
2023-02-28T07:39:22.407Z,7.400
2023-02-28T07:41:22.676Z,6.199
2023-02-28T07:42:23.680Z,7.599
2023-02-28T07:43:23.333Z,6.5
2023-02-28T07:44:22.876Z,5.800
2023-02-28T07:45:22.726Z,5.900
2023-02-28T07:46:22.670Z,6.699
2023-02-28T07:47:25.337Z,6.5
2023-02-28T07:48:22.553Z,7.599
2023-02-28T07:49:22.351Z,6.099
2023-02-28T07:50:22.832Z,8.199
2023-02-28T07:51:22.770Z,6.599
2023-02-28T07:52:41.968Z,7.099
2023-02-28T07:53:23.196Z,8.699
2023-02-28T07:54:22.584Z,9.600
2023-02-28T07:55:22.939Z,8.199
2023-02-28T07:56:22.432Z,7.400
2023-02-28T07:57:22.644Z,8.100
2023-02-28T07:58:22.950Z,8.300
2023-02-28T07:59:22.645Z,7.400
2023-02-28T08:00:46.684Z,7.5
2023-02-28T08:01:23.011Z,8.199
2023-02-28T08:02:26.252Z,7.300
2023-02-28T08:03:23.554Z,8.399
2023-02-28T08:04:22.716Z,7.400
2023-02-28T08:06:22.656Z,8.399
2023-02-28T08:07:23.139Z,7.400
2023-02-28T08:08:23.383Z,7
2023-02-28T08:09:22.593Z,7.199
2023-02-28T08:10:23.716Z,6.900
2023-02-28T08:11:23.171Z,6.699
2023-02-28T08:12:22.721Z,6.099
2023-02-28T08:13:22.767Z,6.300
2023-02-28T08:14:23.156Z,6.099
2023-02-28T08:15:23.097Z,6.599
2023-02-28T08:16:22.923Z,6.800
2023-02-28T08:17:23.021Z,6.099
2023-02-28T08:18:22.423Z,7.300
2023-02-28T08:19:22.841Z,7.400
2023-02-28T08:20:23.112Z,8
2023-02-28T08:21:23.031Z,7.5
2023-02-28T08:22:23.334Z,6.400
2023-02-28T08:23:22.715Z,6.599
2023-02-28T08:24:22.832Z,6.5
2023-02-28T08:26:23.094Z,5.699
2023-02-28T08:27:22.162Z,7.199
2023-02-28T08:28:21.920Z,6.900
2023-02-28T08:29:23.034Z,5.699
2023-02-28T08:30:22.755Z,6.400
2023-02-28T08:31:23.446Z,6.300
2023-02-28T08:32:29.901Z,5.800
2023-02-28T08:33:22.733Z,5.5
2023-02-28T08:34:22.125Z,4.5
2023-02-28T08:35:22.890Z,5.800
2023-02-28T08:36:22.879Z,5.599
2023-02-28T08:37:22.470Z,5.5
2023-02-28T08:39:23.400Z,6.900
2023-02-28T08:40:23.410Z,5.800
2023-02-28T08:41:22.986Z,5.400
2023-02-28T08:42:23.256Z,4.800
2023-02-28T08:43:22.884Z,5.800
2023-02-28T08:44:22.740Z,5.199
2023-02-28T08:45:22.714Z,5.800
2023-02-28T08:46:22.783Z,5.199
2023-02-28T08:47:22.859Z,4.900
2023-02-28T08:48:22.817Z,6
2023-02-28T08:49:22.326Z,6.099
2023-02-28T08:50:22.797Z,5.599
2023-02-28T08:51:22.476Z,6.099
2023-02-28T08:52:27.576Z,6.699
2023-02-28T08:53:23.667Z,7.400
2023-02-28T08:54:22.148Z,7.099
2023-02-28T08:55:23.251Z,5
2023-02-28T08:56:23.886Z,6.599
2023-02-28T08:57:23.660Z,5.199
2023-02-28T08:58:22.987Z,6.199
2023-02-28T09:00:24.403Z,6.800
2023-02-28T09:01:23.560Z,5.5
2023-02-28T09:02:22.939Z,5.900
2023-02-28T09:03:24.350Z,5.599
2023-02-28T09:05:23.142Z,4.699
2023-02-28T09:06:23.216Z,5.699
2023-02-28T09:07:23.260Z,6.099
2023-02-28T09:08:22.953Z,6.199
2023-02-28T09:09:23.298Z,5.800
2023-02-28T09:10:23.840Z,6.300
2023-02-28T09:11:23.003Z,5.699
2023-02-28T09:12:23.681Z,5.300
2023-02-28T09:13:23.950Z,4.699
2023-02-28T09:14:22.865Z,5.699
2023-02-28T09:15:23.699Z,5.599
2023-02-28T09:16:23.193Z,6.5
2023-02-28T09:17:23.250Z,6
2023-02-28T09:18:23.671Z,5.5
2023-02-28T09:19:22.961Z,5.199
2023-02-28T09:20:22.910Z,6.599
2023-02-28T09:21:23.539Z,6.699
2023-02-28T09:22:23.058Z,5.199
2023-02-28T09:23:21.636Z,6
2023-02-28T09:24:22.414Z,5.099
2023-02-28T09:25:23.729Z,7.099
2023-02-28T09:26:23.081Z,6.199
2023-02-28T09:27:22.577Z,6.699
2023-02-28T09:28:23.141Z,6.400
2023-02-28T09:29:22.057Z,7.699
2023-02-28T09:30:23.001Z,4.699
2023-02-28T09:31:22.749Z,6.699
2023-02-28T09:32:23.263Z,6.199
2023-02-28T09:33:23.104Z,6.300
2023-02-28T09:34:23.060Z,5.300
2023-02-28T09:35:23.232Z,6
2023-02-28T09:36:24.850Z,4.599
2023-02-28T09:37:23.043Z,5.599
2023-02-28T09:38:23.269Z,5.800
2023-02-28T09:39:22.825Z,6.199
2023-02-28T09:40:22.563Z,6.300
2023-02-28T09:41:22.997Z,4.800
2023-02-28T09:42:23.119Z,7.199
2023-02-28T09:43:23.611Z,4.900
2023-02-28T09:44:22.472Z,6.699
2023-02-28T09:45:28.592Z,5.5
2023-02-28T09:46:22.365Z,5.699
2023-02-28T09:47:23.288Z,4.900
2023-02-28T09:48:22.138Z,4
2023-02-28T09:49:30.539Z,5.300
2023-02-28T09:50:23.081Z,4.5
2023-02-28T09:51:22.612Z,5.099
2023-02-28T09:52:23.224Z,4.699
2023-02-28T09:53:22.461Z,4.800
2023-02-28T09:54:23.172Z,4
2023-02-28T09:55:46.254Z,4.5
2023-02-28T09:56:22.454Z,5
2023-02-28T09:57:22.545Z,5.5
2023-02-28T09:58:23.163Z,4.400
2023-02-28T09:59:22.550Z,7.099
2023-02-28T10:00:24.100Z,7.300
2023-02-28T10:01:37.583Z,4.800
2023-02-28T10:02:23.063Z,3.5
2023-02-28T10:03:22.984Z,4.699
2023-02-28T10:04:23.322Z,4.199
2023-02-28T10:05:23.288Z,6
2023-02-28T10:06:23.223Z,5.199
2023-02-28T10:07:23.356Z,5.599
2023-02-28T10:08:22.404Z,4.599
2023-02-28T10:09:22.906Z,4.800
2023-02-28T10:10:22.855Z,5.199
2023-02-28T10:11:22.838Z,4.5
2023-02-28T10:12:23.016Z,4.300
2023-02-28T10:13:23.076Z,4.400
2023-02-28T10:14:22.666Z,4.5
2023-02-28T10:15:23.610Z,4
2023-02-28T10:16:22.567Z,4.400
2023-02-28T10:17:22.831Z,3.700
2023-02-28T10:18:22.460Z,4.400
2023-02-28T10:19:23.177Z,7.900
2023-02-28T10:20:23.137Z,4.5
2023-02-28T10:21:44.896Z,5.400
2023-02-28T10:22:23.289Z,5.300
2023-02-28T10:23:22.419Z,4.599
2023-02-28T10:24:22.850Z,4.5
2023-02-28T10:25:22.546Z,3.799
2023-02-28T10:26:23.491Z,4.199
2023-02-28T10:27:22.938Z,4.099
2023-02-28T10:28:22.760Z,4.599
2023-02-28T10:29:23.012Z,3.799
2023-02-28T10:30:23.128Z,6.099
2023-02-28T10:32:25.478Z,4.199
2023-02-28T10:33:23.423Z,4.099
2023-02-28T10:34:22.867Z,3.700
2023-02-28T10:36:25.400Z,4.300
2023-02-28T10:37:22.568Z,5.300
2023-02-28T10:38:23.565Z,4.300
2023-02-28T10:40:25.144Z,4.5
2023-02-28T10:41:22.822Z,3.799
2023-02-28T10:42:23.565Z,4.599
2023-02-28T10:43:22.794Z,4.300
2023-02-28T10:44:22.720Z,5.900
2023-02-28T10:45:24.017Z,4.099
2023-02-28T10:46:22.782Z,4.699
2023-02-28T10:47:22.853Z,4.5
2023-02-28T10:49:23.277Z,5.800
2023-02-28T10:50:23.072Z,4.199
2023-02-28T10:51:23.851Z,4
2023-02-28T10:52:23.039Z,4.5
2023-02-28T10:53:23.149Z,5
2023-02-28T10:54:23.302Z,4.699
2023-02-28T10:55:23.676Z,4.099
2023-02-28T10:56:22.847Z,5.199
2023-02-28T10:57:23.083Z,4.099
2023-02-28T10:58:23.716Z,4.900
2023-02-28T10:59:23.528Z,4.5
2023-02-28T11:00:24.610Z,4.800
2023-02-28T11:02:23.263Z,4.300
2023-02-28T11:03:23.468Z,5
2023-02-28T11:04:23.704Z,4.800
2023-02-28T11:05:25.744Z,5.5
2023-02-28T11:06:23.839Z,5.900
2023-02-28T11:07:24.626Z,5.199
2023-02-28T11:09:22.873Z,3.900
2023-02-28T11:10:24.022Z,4.800
2023-02-28T11:11:22.857Z,5.5
2023-02-28T11:12:23.490Z,6.199
2023-02-28T11:13:22.721Z,4.099
2023-02-28T11:14:22.885Z,6.300
2023-02-28T11:15:23.404Z,4.699
2023-02-28T11:16:22.903Z,3.5
2023-02-28T11:17:23.656Z,4.099
2023-02-28T11:18:23.131Z,4.199
2023-02-28T11:19:23.278Z,4.599
2023-02-28T11:20:23.943Z,4
2023-02-28T11:21:23.444Z,4.099
2023-02-28T11:22:23.454Z,5.699
2023-02-28T11:23:23.389Z,5.800
2023-02-28T11:24:22.819Z,4.900
2023-02-28T11:25:23.970Z,4.699
2023-02-28T11:26:23.006Z,4.300
2023-02-28T11:27:23.076Z,4.800
2023-02-28T11:28:23.553Z,4.5
2023-02-28T11:29:23.489Z,4.199
2023-02-28T11:30:24.115Z,6.300
2023-02-28T11:31:23.633Z,5.599
2023-02-28T11:32:23.347Z,4.599
2023-02-28T11:33:23.762Z,4
2023-02-28T11:34:24.014Z,3.700
2023-02-28T11:35:23.749Z,5.300
2023-02-28T11:36:24.501Z,4
2023-02-28T11:37:24.353Z,5.800
2023-02-28T11:38:23.121Z,5.5
2023-02-28T11:39:23.972Z,4.300
2023-02-28T11:40:23.881Z,4.800
2023-02-28T11:41:23.529Z,4.300
2023-02-28T11:42:23.356Z,4.599
2023-02-28T11:43:23.860Z,5
2023-02-28T11:44:23.077Z,4.900
2023-02-28T11:45:23.098Z,4
2023-02-28T11:46:23.513Z,4.199
2023-02-28T11:47:24.654Z,4
2023-02-28T11:48:24.345Z,5.599
2023-02-28T11:49:23.585Z,4.800
2023-02-28T11:50:23.918Z,4.900
2023-02-28T11:51:23.992Z,4.800
2023-02-28T11:52:24.054Z,4.599
2023-02-28T11:53:23.643Z,3.799
2023-02-28T11:54:24.117Z,4.400
2023-02-28T11:55:23.882Z,3.900
2023-02-28T11:56:23.195Z,3.700
2023-02-28T11:57:23.480Z,4.5
2023-02-28T11:59:23.869Z,5.400
2023-02-28T12:00:27.769Z,5.199
2023-02-28T12:01:24.588Z,5.400
2023-02-28T12:02:28.477Z,5
2023-02-28T12:03:23.997Z,4.699
2023-02-28T12:04:28.837Z,4
2023-02-28T12:05:24.929Z,4.800
2023-02-28T12:06:24.234Z,4.099
2023-02-28T12:07:23.664Z,4
2023-02-28T12:08:28.655Z,3.900
2023-02-28T12:09:24.177Z,4.900
2023-02-28T12:10:28.930Z,3.799
2023-02-28T12:11:23.824Z,7.300
2023-02-28T12:12:28.754Z,4.400
2023-02-28T12:13:23.469Z,4.199
2023-02-28T12:14:23.917Z,4.699
2023-02-28T12:15:23.894Z,4.900
2023-02-28T12:16:24.834Z,4.400
2023-02-28T12:17:23.835Z,4.599
2023-02-28T12:18:23.823Z,4
2023-02-28T12:19:23.818Z,4.199
2023-02-28T12:20:23.594Z,4.900
2023-02-28T12:21:23.566Z,5.300
2023-02-28T12:22:32.384Z,4.300
2023-02-28T12:23:23.710Z,4.400
2023-02-28T12:24:23.554Z,6.900
2023-02-28T12:25:24.403Z,5.400
2023-02-28T12:26:23.377Z,4.599
2023-02-28T12:27:25.300Z,4.699
2023-02-28T12:28:23.254Z,4.300
2023-02-28T12:29:24.128Z,5.300
2023-02-28T12:30:23.586Z,4.599
2023-02-28T12:31:23.885Z,5.5
2023-02-28T12:32:23.853Z,4.400
2023-02-28T12:33:23.126Z,5.599
2023-02-28T12:34:23.332Z,3.799
2023-02-28T12:35:23.946Z,3.900
2023-02-28T12:36:41.838Z,5
2023-02-28T12:37:23.177Z,4.300
2023-02-28T12:38:23.643Z,5.199
2023-02-28T12:39:24.122Z,4.699
2023-02-28T12:40:22.806Z,4.099
2023-02-28T12:41:23.529Z,6.300
2023-02-28T12:42:23.246Z,4.800
2023-02-28T12:43:23.292Z,3.900
2023-02-28T12:44:23.132Z,4
2023-02-28T12:46:23.908Z,5.5
2023-02-28T12:47:23.665Z,4.699
2023-02-28T12:48:24.236Z,4.400
2023-02-28T12:50:23.985Z,4.199
2023-02-28T12:51:23.177Z,4.699
2023-02-28T12:52:23.486Z,4.5
2023-02-28T12:53:23.991Z,4.199
2023-02-28T12:54:24.401Z,4.300
2023-02-28T12:55:23.946Z,3.900
2023-02-28T12:57:24.418Z,4.599
2023-02-28T12:58:24.340Z,4
2023-02-28T12:59:24.108Z,4.400
2023-02-28T13:01:28.741Z,5.300
2023-02-28T13:02:24.648Z,3.900
2023-02-28T13:03:23.931Z,4.800
2023-02-28T13:04:24.653Z,4.400
2023-02-28T13:05:23.626Z,4.800
2023-02-28T13:07:28.021Z,3.900
2023-02-28T13:08:23.101Z,3.700
2023-02-28T13:09:23.112Z,4.900
2023-02-28T13:10:27.394Z,4.400
2023-02-28T13:11:24.228Z,4.800
2023-02-28T13:12:23.803Z,5.400
2023-02-28T13:13:24.159Z,5.699
2023-02-28T13:15:27.972Z,4.900
2023-02-28T13:16:23.333Z,4.5
2023-02-28T13:17:23.331Z,5
2023-02-28T13:18:23.710Z,3.700
2023-02-28T13:19:24.186Z,6.400
2023-02-28T13:20:24.221Z,3.799
2023-02-28T13:21:24.071Z,4.300
2023-02-28T13:22:24.332Z,5
2023-02-28T13:23:23.714Z,5.199
2023-02-28T13:24:24.132Z,4.300
2023-02-28T13:25:23.254Z,4.900
2023-02-28T13:26:23.749Z,5.599
2023-02-28T13:27:24.126Z,4.599
2023-02-28T13:28:23.347Z,5
2023-02-28T13:29:23.253Z,4.599
2023-02-28T13:30:23.697Z,5.400
2023-02-28T13:31:23.426Z,3.700
2023-02-28T13:32:23.639Z,5.800
2023-02-28T13:33:23.520Z,4.199
2023-02-28T13:34:23.169Z,4.599
2023-02-28T13:35:24.290Z,6
2023-02-28T13:36:23.463Z,5.199
2023-02-28T13:38:23.481Z,4.199
2023-02-28T13:39:22.869Z,5.099
2023-02-28T13:40:23.379Z,4.099
2023-02-28T13:41:23.478Z,3.799
2023-02-28T13:42:34.402Z,4.5
2023-02-28T13:44:23.888Z,7.400
2023-02-28T13:45:25.936Z,9